Time;durP1;ratioP1;P1;durP2;ratioP2;P2;SDS_P1;SDS_P2;PMS_P1;PMS_P2;Temp;Humidity;BMP_temperature;BMP_pressure;BME280_temperature;BME280_humidity;BME280_pressure;Samples;Min_cycle;Max_cycle;Signal;HPM_P1;HPM_P2
2023/05/19 00:00:16;;;;;;;7.43;4.30;;;;;;;10.77;80.19;94153.88;5004590;28;20205;-76
2023/05/19 00:02:42;;;;;;;8.00;4.70;;;;;;;10.74;79.91;94145.69;5004420;28;20094;-77
2023/05/19 00:05:09;;;;;;;15.52;4.57;;;;;;;10.74;80.93;94143.81;5004514;28;20033;-76
2023/05/19 00:07:37;;;;;;;7.00;3.88;;;;;;;10.74;80.70;94148.34;4987111;28;20105;-77
2023/05/19 00:10:03;;;;;;;8.40;4.15;;;;;;;10.77;80.68;94140.53;5004427;28;20026;-76
2023/05/19 00:12:29;;;;;;;7.05;4.05;;;;;;;10.83;80.14;94143.88;5004142;28;20173;-77
2023/05/19 00:14:54;;;;;;;5.85;3.85;;;;;;;10.83;79.20;94143.88;5004279;28;20081;-76
2023/05/19 00:17:20;;;;;;;6.07;3.67;;;;;;;10.82;78.79;94142.28;4986943;28;20097;-76
2023/05/19 00:19:46;;;;;;;10.00;4.00;;;;;;;10.81;78.65;94136.16;5004352;28;20029;-76
2023/05/19 00:22:11;;;;;;;7.60;4.22;;;;;;;10.84;77.76;94130.19;5004246;28;20022;-76
2023/05/19 00:24:36;;;;;;;6.75;4.43;;;;;;;10.83;78.52;94135.88;5003964;28;20022;-76
2023/05/19 00:27:02;;;;;;;7.75;4.32;;;;;;;10.86;78.76;94123.78;4986847;28;20045;-76
2023/05/19 00:29:28;;;;;;;12.43;4.03;;;;;;;10.84;78.40;94124.09;5003930;28;20220;-76
2023/05/19 00:31:53;;;;;;;7.10;4.20;;;;;;;10.87;78.11;94128.03;5004161;28;20232;-76
2023/05/19 00:34:19;;;;;;;6.70;4.13;;;;;;;10.86;78.23;94126.47;5003808;28;20028;-76
2023/05/19 00:36:44;;;;;;;6.43;3.83;;;;;;;10.85;78.39;94117.69;5003795;28;20011;-76
2023/05/19 00:39:10;;;;;;;7.13;4.00;;;;;;;10.82;78.86;94126.28;5004014;28;20022;-76
2023/05/19 00:41:35;;;;;;;8.10;4.50;;;;;;;10.82;78.40;94124.41;4986628;28;20110;-76
2023/05/19 00:44:00;;;;;;;9.23;4.13;;;;;;;10.82;77.54;94118.28;5003720;28;20343;-76
2023/05/19 00:46:26;;;;;;;8.00;3.83;;;;;;;10.86;77.35;94121.91;4986378;28;20025;-76
2023/05/19 00:48:52;;;;;;;7.75;3.67;;;;;;;10.87;77.52;94112.81;5003428;28;20376;-76
2023/05/19 00:51:17;;;;;;;5.45;3.70;;;;;;;10.91;77.51;94119.13;5003300;28;20093;-76
2023/05/19 00:53:47;;;;;;;6.40;3.78;;;;;;;10.87;77.35;94115.50;5003829;28;20046;-75
2023/05/19 00:56:15;;;;;;;4.57;3.05;;;;;;;10.90;76.67;94122.88;5003648;28;20026;-75
2023/05/19 00:58:40;;;;;;;4.88;3.42;;;;;;;10.91;76.96;94113.78;5003354;28;20022;-77
2023/05/19 01:01:07;;;;;;;5.60;3.03;;;;;;;10.92;77.00;94117.22;5003529;28;20102;-77
2023/05/19 01:03:34;;;;;;;5.47;3.47;;;;;;;10.92;76.62;94110.00;5003588;28;20058;-76
2023/05/19 01:06:03;;;;;;;11.57;3.65;;;;;;;10.91;76.68;94110.31;5003633;28;20049;-76
2023/05/19 01:08:30;;;;;;;4.97;2.88;;;;;;;10.88;76.96;94114.38;5003497;28;20030;-76
2023/05/19 01:10:56;;;;;;;6.15;3.60;;;;;;;10.80;76.90;94112.47;5003168;28;20093;-76
2023/05/19 01:13:22;;;;;;;9.07;3.22;;;;;;;10.81;77.55;94119.38;5003276;28;20026;-76
2023/05/19 01:16:21;;;;;;;9.77;4.18;;;;;;;10.75;77.74;94125.94;5003352;28;20225;-75
2023/05/19 01:19:00;;;;;;;11.50;3.92;;;;;;;10.69;78.21;94133.28;4997006;28;20038;-75
2023/05/19 01:21:47;;;;;;;7.50;4.22;;;;;;;10.64;78.63;94126.22;5003129;28;20248;-75
2023/05/19 01:24:52;;;;;;;8.13;4.28;;;;;;;10.63;78.52;94127.28;5003286;28;20308;-75
2023/05/19 01:27:52;;;;;;;9.00;3.97;;;;;;;10.56;78.79;94126.97;5003245;28;20065;-75
2023/05/19 01:30:33;;;;;;;7.97;3.97;;;;;;;10.48;79.33;94116.25;4960203;28;20130;-75
2023/05/19 01:33:02;;;;;;;8.18;4.65;;;;;;;10.47;79.33;94126.13;5003137;28;20093;-75
2023/05/19 01:35:29;;;;;;;7.32;4.45;;;;;;;10.46;79.57;94121.88;5003042;28;20045;-75
2023/05/19 01:37:57;;;;;;;6.85;4.05;;;;;;;10.45;79.57;94112.31;5003037;28;20041;-75
2023/05/19 01:40:24;;;;;;;8.23;4.07;;;;;;;10.47;79.55;94109.34;5002884;28;20382;-75
2023/05/19 01:42:55;;;;;;;9.13;3.70;;;;;;;10.45;79.39;94112.31;5002760;28;20019;-75
2023/05/19 01:45:22;;;;;;;8.20;3.78;;;;;;;10.42;79.80;94118.25;5003179;28;20094;-76
2023/05/19 01:47:51;;;;;;;8.95;4.13;;;;;;;10.38;79.28;94120.75;5003104;28;20109;-75
2023/05/19 01:50:16;;;;;;;11.80;4.18;;;;;;;10.37;79.62;94118.38;5002960;28;20207;-75
2023/05/19 01:52:42;;;;;;;8.90;4.15;;;;;;;10.35;79.83;94112.56;5002679;28;20033;-76
2023/05/19 01:55:08;;;;;;;6.60;4.47;;;;;;;10.34;80.25;94121.63;4985449;28;20084;-76
2023/05/19 01:57:54;;;;;;;7.68;4.50;;;;;;;10.32;80.55;94123.81;5003141;28;20037;-75
2023/05/19 02:00:31;;;;;;;10.30;4.93;;;;;;;10.33;80.90;94131.53;5003038;28;20069;-76
2023/05/19 02:03:12;;;;;;;8.45;4.90;;;;;;;10.31;81.03;94138.25;5002719;28;20046;-76
2023/05/19 02:05:46;;;;;;;6.65;4.68;;;;;;;10.20;81.41;94133.13;5002641;28;20057;-76
2023/05/19 02:08:37;;;;;;;7.13;4.47;;;;;;;10.16;81.62;94134.84;5002939;28;20018;-75
2023/05/19 02:11:13;;;;;;;8.80;5.00;;;;;;;10.13;82.47;94132.75;5006291;28;20312;-76
2023/05/19 02:13:42;;;;;;;8.35;5.10;;;;;;;10.14;82.99;94126.38;5006444;28;20049;-76
2023/05/19 02:16:10;;;;;;;9.93;5.38;;;;;;;10.14;82.80;94133.56;5006423;28;20313;-76
2023/05/19 02:18:35;;;;;;;9.55;5.10;;;;;;;10.09;83.09;94126.47;5006460;28;20026;-76
2023/05/19 02:21:02;;;;;;;9.52;5.40;;;;;;;10.12;83.33;94136.53;5006536;28;20054;-76
2023/05/19 02:23:27;;;;;;;9.95;5.55;;;;;;;10.13;83.15;94138.09;5006123;28;20101;-76
2023/05/19 02:25:53;;;;;;;11.45;5.90;;;;;;;10.15;83.26;94135.91;5006365;28;20030;-76
2023/05/19 02:28:18;;;;;;;10.93;5.13;;;;;;;10.13;83.71;94138.09;5006396;28;20256;-76
2023/05/19 02:30:44;;;;;;;8.95;5.18;;;;;;;10.06;84.10;94131.63;4988785;28;20061;-75
2023/05/19 02:33:10;;;;;;;10.13;5.75;;;;;;;10.00;84.53;94128.28;5006170;28;20049;-76
2023/05/19 02:35:36;;;;;;;13.50;6.65;;;;;;;9.98;84.54;94133.13;5006148;28;20030;-75
2023/05/19 02:38:01;;;;;;;9.90;6.25;;;;;;;9.99;84.47;94143.50;5006178;28;20093;-76
2023/05/19 02:40:26;;;;;;;9.35;5.65;;;;;;;9.99;84.43;94143.50;5006346;28;20042;-76
2023/05/19 02:42:52;;;;;;;12.95;6.63;;;;;;;9.97;84.32;94139.53;5006110;28;20033;-75
2023/05/19 02:45:18;;;;;;;12.68;6.75;;;;;;;9.96;84.79;94138.75;5006100;28;20316;-75
2023/05/19 02:47:43;;;;;;;11.73;6.78;;;;;;;9.92;84.84;94131.69;5005806;28;20026;-76
2023/05/19 02:50:09;;;;;;;13.55;6.72;;;;;;;9.92;84.82;94139.66;5005561;28;20026;-77
2023/05/19 02:52:34;;;;;;;12.65;7.13;;;;;;;9.91;85.13;94141.56;5006057;28;20216;-77
2023/05/19 02:55:00;;;;;;;13.18;6.72;;;;;;;9.90;84.95;94139.19;4988345;28;20038;-77
2023/05/19 02:57:28;;;;;;;11.15;6.63;;;;;;;9.90;85.00;94147.16;5005638;28;20313;-77
2023/05/19 02:59:54;;;;;;;10.85;6.85;;;;;;;9.80;85.58;94140.19;5005962;28;20068;-77
2023/05/19 03:02:20;;;;;;;11.75;6.82;;;;;;;9.79;85.67;94142.09;5005798;28;20124;-76
2023/05/19 03:04:45;;;;;;;13.85;7.25;;;;;;;9.76;86.18;94140.00;4988312;28;20304;-76
2023/05/19 03:07:13;;;;;;;12.50;7.43;;;;;;;9.77;86.22;94144.25;5005779;28;20014;-75
2023/05/19 03:09:38;;;;;;;11.68;7.53;;;;;;;9.77;86.64;94146.09;5005665;28;20042;-75
2023/05/19 03:12:06;;;;;;;14.20;7.35;;;;;;;9.77;86.38;94146.91;5005606;28;20321;-75
2023/05/19 03:14:33;;;;;;;17.60;8.38;;;;;;;9.77;86.59;94146.91;5005369;28;20097;-75
2023/05/19 03:16:59;;;;;;;13.10;8.13;;;;;;;9.73;86.95;94156.59;5004946;28;20041;-75
2023/05/19 03:19:25;;;;;;;15.30;8.43;;;;;;;9.80;86.86;94151.63;5005151;28;20026;-75
2023/05/19 03:21:50;;;;;;;14.20;8.10;;;;;;;9.82;86.91;94154.78;5003954;28;20276;-75
2023/05/19 03:24:16;;;;;;;15.75;8.20;;;;;;;9.84;86.91;94151.81;5005123;28;20042;-76
2023/05/19 03:26:42;;;;;;;13.88;8.00;;;;;;;9.88;86.49;94157.34;5005285;28;20033;-76
2023/05/19 03:29:07;;;;;;;13.90;7.38;;;;;;;9.91;86.30;94162.84;5005239;28;20026;-76
2023/05/19 03:31:33;;;;;;;14.85;7.95;;;;;;;9.91;86.53;94149.53;5005606;28;20101;-76
2023/05/19 03:33:58;;;;;;;13.75;8.70;;;;;;;9.92;86.63;94148.44;5005297;28;20026;-76
2023/05/19 03:36:23;;;;;;;14.02;8.27;;;;;;;9.98;86.50;94146.44;5004759;28;20093;-78
2023/05/19 03:38:49;;;;;;;19.83;8.65;;;;;;;10.00;86.26;94153.03;5005133;28;20030;-77
2023/05/19 03:41:15;;;;;;;15.55;8.43;;;;;;;10.03;86.56;94151.66;5005416;28;20026;-77
2023/05/19 03:43:40;;;;;;;16.02;8.07;;;;;;;10.04;85.94;94156.69;5005009;28;20086;-77
2023/05/19 03:46:06;;;;;;;15.70;8.32;;;;;;;10.11;86.00;94148.25;5005042;28;20228;-76
2023/05/19 03:48:31;;;;;;;14.27;7.95;;;;;;;10.10;85.77;94154.69;5004834;28;20026;-76
2023/05/19 03:50:56;;;;;;;12.52;8.07;;;;;;;10.16;85.37;94160.69;5004818;28;20066;-76
2023/05/19 03:53:22;;;;;;;17.58;8.63;;;;;;;10.24;85.56;94159.97;5004212;28;20097;-76
2023/05/19 03:55:49;;;;;;;16.92;8.25;;;;;;;10.32;84.70;94161.94;5004659;28;20037;-76
2023/05/19 03:58:14;;;;;;;17.80;10.15;;;;;;;10.39;84.87;94159.59;5004705;28;20018;-76
2023/05/19 04:00:41;;;;;;;16.00;9.02;;;;;;;10.46;84.32;94164.50;5004853;28;20172;-76
2023/05/19 04:03:07;;;;;;;18.65;8.50;;;;;;;10.51;84.42;94153.72;5004645;28;20029;-76
2023/05/19 04:05:33;;;;;;;19.23;8.70;;;;;;;10.60;83.95;94162.56;5004587;28;20014;-76
2023/05/19 04:07:58;;;;;;;19.50;9.52;;;;;;;10.62;83.79;94170.25;5004348;28;20089;-77
2023/05/19 04:10:24;;;;;;;19.83;8.35;;;;;;;10.67;83.43;94174.69;5004160;28;20026;-76
2023/05/19 04:12:49;;;;;;;17.73;8.85;;;;;;;10.67;82.72;94166.69;5004433;28;20049;-75
2023/05/19 04:15:15;;;;;;;19.48;9.25;;;;;;;10.74;83.40;94169.69;5003979;28;20186;-76
2023/05/19 04:17:41;;;;;;;19.75;8.25;;;;;;;10.74;82.78;94159.81;5004092;28;20308;-76
2023/05/19 04:20:06;;;;;;;13.70;8.32;;;;;;;10.74;83.09;94164.34;5004387;28;20248;-76
2023/05/19 04:22:32;;;;;;;15.73;8.13;;;;;;;10.73;82.92;94165.47;5004184;28;20060;-76
2023/05/19 04:24:58;;;;;;;18.95;8.88;;;;;;;10.77;82.92;94172.53;5004086;28;20041;-76
2023/05/19 04:27:24;;;;;;;17.30;9.77;;;;;;;10.87;82.91;94178.69;4986671;28;20042;-76
2023/05/19 04:29:50;;;;;;;17.92;9.32;;;;;;;10.94;82.91;94179.03;5004234;28;20014;-76
2023/05/19 04:32:18;;;;;;;16.10;9.43;;;;;;;10.98;82.11;94180.78;5004039;28;20350;-76
2023/05/19 04:34:46;;;;;;;15.15;9.23;;;;;;;11.04;81.73;94187.56;5003838;28;20057;-74
2023/05/19 04:37:12;;;;;;;12.88;7.85;;;;;;;11.08;81.24;94181.63;5003975;28;20080;-76
2023/05/19 04:39:41;;;;;;;14.73;8.02;;;;;;;11.13;81.38;94189.47;5003968;28;20233;-76
2023/05/19 04:42:07;;;;;;;13.52;8.20;;;;;;;11.19;80.79;94198.91;5004213;28;20077;-76
2023/05/19 04:44:33;;;;;;;16.80;8.38;;;;;;;11.27;80.56;94190.16;5003882;28;20371;-76
2023/05/19 04:46:58;;;;;;;19.08;8.48;;;;;;;11.34;79.14;94198.50;5003955;28;20023;-76
2023/05/19 04:49:24;;;;;;;19.85;9.15;;;;;;;11.33;80.39;94191.59;5003488;28;20053;-76
2023/05/19 04:51:51;;;;;;;19.50;9.05;;;;;;;11.28;80.39;94191.75;5003518;28;20025;-76
2023/05/19 04:54:16;;;;;;;19.05;8.13;;;;;;;11.28;79.93;94193.63;5002569;28;20045;-74
2023/05/19 04:56:42;;;;;;;13.45;7.35;;;;;;;11.30;80.12;94194.88;5002084;28;20026;-74
2023/05/19 04:59:08;;;;;;;16.33;9.90;;;;;;;11.31;80.09;94195.66;5003183;28;20022;-75
2023/05/19 05:01:39;;;;;;;14.18;7.72;;;;;;;11.33;80.12;94191.59;5003108;28;20030;-75
2023/05/19 05:04:04;;;;;;;22.30;8.55;;;;;;;11.36;80.00;94193.66;5004005;28;20029;-77
2023/05/19 05:06:32;;;;;;;18.17;8.38;;;;;;;11.37;79.36;94195.22;5003369;28;20038;-77
2023/05/19 05:08:58;;;;;;;17.10;8.52;;;;;;;11.42;79.30;94194.31;5002978;28;20022;-77
2023/05/19 05:11:24;;;;;;;14.48;9.48;;;;;;;11.52;79.70;94191.34;5003447;28;20022;-77
2023/05/19 05:13:50;;;;;;;11.10;7.28;;;;;;;11.58;78.98;94189.28;5003314;28;20085;-77
2023/05/19 05:16:15;;;;;;;14.63;8.50;;;;;;;11.69;79.00;94187.13;5003323;28;20026;-77
2023/05/19 05:18:41;;;;;;;13.45;7.78;;;;;;;11.73;78.21;94198.78;5002673;28;20248;-75
2023/05/19 05:21:07;;;;;;;13.30;8.25;;;;;;;11.73;77.58;94194.22;5002700;28;20022;-75
2023/05/19 05:23:33;;;;;;;17.67;8.98;;;;;;;11.87;79.60;94191.41;5003417;28;20204;-73
2023/05/19 05:25:58;;;;;;;19.15;8.15;;;;;;;11.95;77.99;94195.22;5002979;28;20024;-73
2023/05/19 05:28:24;;;;;;;20.05;8.75;;;;;;;12.02;77.65;94182.16;5003103;28;20022;-73
2023/05/19 05:30:49;;;;;;;16.45;7.60;;;;;;;12.11;77.11;94188.31;5002744;28;20018;-73
2023/05/19 05:33:16;;;;;;;17.80;8.25;;;;;;;12.26;77.88;94191.63;5002778;28;20070;-71
2023/05/19 05:35:41;;;;;;;16.90;8.68;;;;;;;12.39;77.56;94196.00;5002789;28;20026;-72
2023/05/19 05:38:07;;;;;;;11.77;7.40;;;;;;;12.49;76.21;94198.34;5003068;28;20080;-72
2023/05/19 05:40:32;;;;;;;14.50;8.80;;;;;;;12.57;75.35;94208.25;5002992;28;20299;-72
2023/05/19 05:42:58;;;;;;;15.63;7.47;;;;;;;12.55;74.94;94202.44;5002694;28;20022;-73
2023/05/19 05:45:23;;;;;;;13.05;8.38;;;;;;;12.58;75.07;94201.81;5005209;28;20018;-72
2023/05/19 05:47:50;;;;;;;11.27;7.75;;;;;;;12.59;74.88;94198.00;5006663;28;20041;-72
2023/05/19 05:50:16;;;;;;;16.10;7.68;;;;;;;12.64;74.47;94205.88;5006819;28;20041;-72
2023/05/19 05:52:45;;;;;;;15.45;8.20;;;;;;;12.65;73.47;94207.44;5006235;28;20126;-72
2023/05/19 05:55:11;;;;;;;13.88;7.88;;;;;;;12.71;74.06;94207.28;5006632;28;20064;-72
2023/05/19 05:57:36;;;;;;;28.48;7.50;;;;;;;12.79;75.07;94203.81;5006743;28;20026;-72
2023/05/19 06:00:08;;;;;;;18.90;8.43;;;;;;;12.90;75.37;94209.59;4989167;28;20046;-72
2023/05/19 06:02:35;;;;;;;13.50;8.30;;;;;;;13.02;75.86;94218.53;5006573;28;20032;-73
2023/05/19 06:05:01;;;;;;;12.52;6.47;;;;;;;13.08;74.36;94223.72;5006178;28;20069;-73
2023/05/19 06:07:26;;;;;;;14.68;7.55;;;;;;;13.16;74.24;94223.69;5006393;28;20053;-73
2023/05/19 06:09:52;;;;;;;19.13;7.68;;;;;;;13.24;73.46;94225.56;5006626;28;20030;-73
2023/05/19 06:12:17;;;;;;;13.32;7.82;;;;;;;13.31;73.85;94230.47;5005989;28;20026;-73
2023/05/19 06:14:43;;;;;;;15.02;7.90;;;;;;;13.36;72.89;94226.81;5006232;28;20253;-73
2023/05/19 06:17:08;;;;;;;16.63;7.40;;;;;;;13.46;71.82;94231.81;5006179;28;20030;-72
2023/05/19 06:19:34;;;;;;;16.70;7.18;;;;;;;13.55;71.58;94218.38;5006880;28;20380;-74
2023/05/19 06:21:59;;;;;;;13.43;7.10;;;;;;;13.58;69.85;94223.09;5006221;28;20041;-73
2023/05/19 06:24:25;;;;;;;13.48;6.70;;;;;;;13.61;70.71;94223.22;5005998;28;20121;-73
2023/05/19 06:26:51;;;;;;;12.98;7.25;;;;;;;13.66;70.32;94222.28;5006129;28;20034;-73
2023/05/19 06:29:16;;;;;;;12.07;6.13;;;;;;;13.72;69.71;94228.22;5005868;28;20100;-72
2023/05/19 06:31:42;;;;;;;12.80;7.32;;;;;;;13.76;69.68;94229.94;5005921;28;20034;-73
2023/05/19 06:34:11;;;;;;;15.73;7.00;;;;;;;13.75;70.17;94233.72;5005897;28;20371;-72
2023/05/19 06:36:36;;;;;;;11.38;5.93;;;;;;;13.82;69.59;94234.00;5005953;28;20320;-72
2023/05/19 06:39:02;;;;;;;11.73;6.00;;;;;;;13.90;69.33;94231.59;5005430;28;20054;-72
2023/05/19 06:41:27;;;;;;;23.58;6.30;;;;;;;14.05;68.03;94226.44;5005884;28;20084;-72
2023/05/19 06:43:53;;;;;;;23.63;7.35;;;;;;;14.12;67.38;94223.25;5005413;28;20022;-72
2023/05/19 06:46:18;;;;;;;8.55;5.38;;;;;;;14.17;67.35;94225.75;5005665;28;20053;-75
2023/05/19 06:48:44;;;;;;;11.30;6.35;;;;;;;14.23;68.15;94237.06;5005756;28;20293;-73
2023/05/19 06:51:09;;;;;;;16.73;8.20;;;;;;;14.27;67.10;94232.63;5005550;28;20029;-73
2023/05/19 06:53:35;;;;;;;12.13;6.60;;;;;;;14.32;67.57;94224.34;5005479;28;20046;-73
2023/05/19 06:56:01;;;;;;;13.65;6.03;;;;;;;14.45;67.40;94226.00;5005276;28;20027;-73
2023/05/19 06:58:26;;;;;;;15.55;6.95;;;;;;;14.59;66.19;94236.50;5005365;28;20018;-73
2023/05/19 07:00:52;;;;;;;15.70;5.65;;;;;;;14.70;65.32;94228.03;5005523;28;20097;-72
2023/05/19 07:03:17;;;;;;;8.98;5.57;;;;;;;14.77;63.94;94236.31;5005183;28;20351;-72
2023/05/19 07:05:42;;;;;;;12.25;6.00;;;;;;;14.82;64.30;94236.91;5004905;28;20030;-72
2023/05/19 07:08:08;;;;;;;9.48;5.97;;;;;;;14.97;64.85;94246.22;4988069;28;20022;-73
2023/05/19 07:10:33;;;;;;;10.52;6.00;;;;;;;15.09;63.31;94244.72;5005270;28;20028;-73
2023/05/19 07:12:59;;;;;;;10.63;6.05;;;;;;;15.14;62.32;94239.13;5005530;28;20022;-72
2023/05/19 07:15:24;;;;;;;16.60;6.47;;;;;;;15.15;61.90;94248.75;5004645;28;20022;-73
2023/05/19 07:17:50;;;;;;;10.57;5.82;;;;;;;15.17;61.40;94246.53;5005139;28;20097;-73
2023/05/19 07:20:15;;;;;;;14.82;5.80;;;;;;;15.22;61.49;94248.97;5005380;28;20024;-74
2023/05/19 07:22:41;;;;;;;21.58;7.03;;;;;;;15.40;61.85;94250.34;5005111;28;20050;-74
2023/05/19 07:25:07;;;;;;;11.05;5.70;;;;;;;15.56;61.09;94245.13;5004878;28;20366;-72
2023/05/19 07:27:32;;;;;;;13.68;5.35;;;;;;;15.70;59.74;94252.06;5005286;28;20197;-73
2023/05/19 07:29:58;;;;;;;9.57;5.63;;;;;;;15.80;59.96;94252.44;5005056;28;20022;-72
2023/05/19 07:32:23;;;;;;;12.18;5.97;;;;;;;15.90;60.01;94251.22;5004945;28;20022;-73
2023/05/19 07:34:54;;;;;;;14.48;6.80;;;;;;;15.94;59.25;94245.97;5004951;28;20018;-79
2023/05/19 07:37:20;;;;;;;10.13;6.40;;;;;;;15.94;59.45;94246.72;5005257;28;20259;-78
2023/05/19 07:39:48;;;;;;;12.63;6.75;;;;;;;16.00;59.42;94241.91;5004982;28;20065;-78
2023/05/19 07:42:13;;;;;;;12.63;5.10;;;;;;;16.07;59.06;94249.41;5004932;28;20070;-77
2023/05/19 07:44:39;;;;;;;17.80;6.53;;;;;;;16.10;59.47;94244.16;5005197;28;20025;-80
2023/05/19 07:47:04;;;;;;;14.68;6.38;;;;;;;16.19;58.10;94252.84;5005063;28;20197;-77
2023/05/19 07:49:30;;;;;;;14.90;6.70;;;;;;;16.28;57.11;94260.00;5004801;28;20387;-78
2023/05/19 07:51:56;;;;;;;14.93;6.82;;;;;;;16.27;57.49;94253.84;5004884;28;20026;-77
2023/05/19 07:54:21;;;;;;;11.45;7.13;;;;;;;16.30;57.18;94244.31;4987262;28;20065;-77
2023/05/19 07:56:47;;;;;;;15.07;6.40;;;;;;;16.48;57.83;94242.94;5004303;28;20022;-78
2023/05/19 07:59:13;;;;;;;11.95;6.50;;;;;;;16.59;57.00;94244.03;5004691;28;20021;-78
2023/05/19 08:01:38;;;;;;;15.85;7.15;;;;;;;16.60;56.74;94242.13;5004674;28;20097;-76
2023/05/19 08:04:04;;;;;;;15.23;7.20;;;;;;;16.58;58.48;94242.44;5004739;28;20073;-77
2023/05/19 08:06:30;;;;;;;13.25;7.10;;;;;;;16.51;58.47;94239.56;5004092;28;20018;-75
2023/05/19 08:08:56;;;;;;;15.68;6.97;;;;;;;16.59;58.37;94249.41;5004580;28;20026;-79
2023/05/19 08:11:21;;;;;;;15.82;7.03;;;;;;;16.64;57.12;94251.06;5004666;28;20328;-80
2023/05/19 08:13:48;;;;;;;13.40;7.60;;;;;;;16.69;57.47;94247.34;5005290;28;20018;-83
2023/05/19 08:16:14;;;;;;;14.90;7.35;;;;;;;16.71;56.66;94245.91;5004670;28;20038;-82
2023/05/19 08:18:40;;;;;;;11.85;6.50;;;;;;;16.78;56.41;94248.78;4987285;28;20049;-80
2023/05/19 08:21:06;;;;;;;11.40;6.97;;;;;;;16.80;55.46;94243.06;5004482;28;20026;-81
2023/05/19 08:23:31;;;;;;;35.63;8.10;;;;;;;16.79;57.05;94249.56;5005215;28;20076;-80
2023/05/19 08:25:57;;;;;;;14.75;7.30;;;;;;;16.78;56.13;94245.31;5004578;28;20034;-80
2023/05/19 08:28:22;;;;;;;18.85;6.95;;;;;;;16.76;56.91;94242.19;5004453;28;20030;-79
2023/05/19 08:30:49;;;;;;;15.23;7.10;;;;;;;16.82;57.62;94247.00;5004472;28;20069;-82
2023/05/19 08:33:15;;;;;;;16.58;7.88;;;;;;;16.97;56.38;94232.00;5004463;28;20321;-81
2023/05/19 08:35:40;;;;;;;11.85;6.93;;;;;;;17.10;55.77;94237.34;5004722;28;20037;-82
2023/05/19 08:38:06;;;;;;;12.32;7.50;;;;;;;17.23;55.74;94246.91;4987239;28;20037;-85
2023/05/19 08:40:33;;;;;;;21.85;9.75;;;;;;;17.41;56.18;94242.00;5004271;28;20034;-85
2023/05/19 08:42:59;;;;;;;16.20;8.43;;;;;;;17.59;54.71;94239.75;4986838;28;20026;-81
2023/05/19 08:45:40;;;;;;;16.92;7.45;;;;;;;17.68;54.74;94242.25;5003926;28;20024;-83
2023/05/19 08:48:06;;;;;;;15.35;7.60;;;;;;;17.82;54.36;94240.66;5004674;28;20102;-83
2023/05/19 08:50:38;;;;;;;17.75;8.25;;;;;;;17.92;53.45;94242.09;5004444;28;20022;-81
2023/05/19 08:53:09;;;;;;;12.30;7.13;;;;;;;18.05;53.36;94245.47;5003964;28;20050;-83
2023/05/19 08:55:52;;;;;;;13.45;8.60;;;;;;;18.22;54.41;94239.69;5003710;28;20325;-84
2023/05/19 08:58:31;;;;;;;14.82;8.20;;;;;;;18.31;52.09;94233.31;4987757;28;20022;-82
2023/05/19 09:00:58;;;;;;;15.18;8.05;;;;;;;18.40;52.36;94242.00;5003622;28;20216;-83
2023/05/19 09:03:25;;;;;;;19.27;8.70;;;;;;;18.53;51.32;94237.25;5003713;28;20030;-83
2023/05/19 09:05:59;;;;;;;20.85;10.45;;;;;;;18.52;51.66;94233.78;5003388;28;20086;-82
2023/05/19 09:08:33;;;;;;;21.58;7.88;;;;;;;18.62;52.38;94233.22;5003495;28;20220;-85
2023/05/19 09:10:59;;;;;;;19.48;9.13;;;;;;;18.89;52.90;94227.19;5003825;28;20034;-87
2023/05/19 09:13:25;;;;;;;19.83;8.23;;;;;;;19.17;53.23;94222.34;5004504;28;20110;-86
2023/05/19 09:15:55;;;;;;;15.48;7.95;;;;;;;19.44;51.24;94223.19;5004719;28;20260;-87
2023/05/19 09:18:38;;;;;;;19.23;8.43;;;;;;;19.64;50.84;94228.50;5005138;28;20022;-88
2023/05/19 09:21:06;;;;;;;12.25;7.47;;;;;;;19.73;49.44;94217.50;5003585;28;20022;-85
2023/05/19 09:23:32;;;;;;;11.90;8.18;;;;;;;19.91;48.63;94215.84;5003780;28;20029;-84
2023/05/19 09:29:00;;;;;;;16.27;9.80;;;;;;;20.21;49.03;94215.91;5003622;28;20030;-87
2023/05/19 09:31:31;;;;;;;14.45;8.40;;;;;;;20.36;48.34;94203.34;4984997;28;20082;-87
2023/05/19 09:33:56;;;;;;;22.13;8.97;;;;;;;20.47;46.78;94203.47;4986716;28;20224;-85
2023/05/19 09:36:22;;;;;;;19.27;9.57;;;;;;;20.54;46.81;94208.22;5003829;28;20288;-84
2023/05/19 09:38:50;;;;;;;22.85;9.13;;;;;;;20.69;46.69;94209.19;4986469;28;20049;-87
2023/05/19 09:41:19;;;;;;;20.38;8.77;;;;;;;20.62;46.23;94210.66;5003882;28;20072;-86
2023/05/19 09:43:58;;;;;;;16.33;8.45;;;;;;;20.63;45.33;94212.22;5003140;28;20037;-87
2023/05/19 09:46:28;;;;;;;19.25;8.20;;;;;;;20.60;46.98;94217.59;5004388;28;20018;-84
2023/05/19 09:49:07;;;;;;;20.17;9.15;;;;;;;20.56;46.35;94217.53;4987267;28;20026;-86
2023/05/19 09:51:54;;;;;;;17.73;8.50;;;;;;;20.61;45.98;94209.09;5003472;28;20022;-88
2023/05/19 09:54:21;;;;;;;17.95;9.10;;;;;;;20.71;44.96;94217.72;4985822;28;20030;-87
2023/05/19 09:57:00;;;;;;;15.63;7.80;;;;;;;20.80;45.73;94204.66;5003688;28;20022;-84
2023/05/19 09:59:26;;;;;;;16.33;8.55;;;;;;;20.91;45.79;94210.22;4986007;28;20029;-81
2023/05/19 10:01:54;;;;;;;15.35;8.43;;;;;;;21.05;45.06;94210.38;5003542;28;20097;-84
2023/05/19 10:04:21;;;;;;;15.98;8.15;;;;;;;21.15;44.20;94207.00;5003409;28;20109;-79
2023/05/19 10:06:52;;;;;;;14.95;8.80;;;;;;;21.24;43.91;94201.28;5003617;28;20299;-80
2023/05/19 10:09:22;;;;;;;20.58;8.88;;;;;;;21.35;44.03;94210.28;5003435;28;20339;-81
2023/05/19 10:11:52;;;;;;;16.15;8.75;;;;;;;21.47;42.06;94203.06;4986236;28;20031;-79
2023/05/19 10:14:22;;;;;;;15.38;8.40;;;;;;;21.48;42.24;94199.22;5002413;28;20033;-78
2023/05/19 10:16:50;;;;;;;15.90;8.07;;;;;;;21.46;43.24;94198.81;5003144;28;20030;-77
2023/05/19 10:19:19;;;;;;;18.70;8.70;;;;;;;21.47;42.45;94192.22;5002930;28;20032;-77
2023/05/19 10:21:45;;;;;;;13.10;7.90;;;;;;;21.55;42.37;94193.81;5003019;28;20030;-82
2023/05/19 10:24:10;;;;;;;18.75;9.15;;;;;;;21.62;43.35;94200.09;4985864;28;20076;-79
2023/05/19 10:26:37;;;;;;;21.02;9.20;;;;;;;21.80;43.57;94194.03;5002950;28;20317;-74
2023/05/19 10:29:04;;;;;;;15.80;8.50;;;;;;;21.82;41.85;94192.50;5002887;28;20223;-77
2023/05/19 10:31:32;;;;;;;17.95;8.60;;;;;;;21.89;41.40;94191.00;5005742;28;20260;-77
2023/05/19 10:34:20;;;;;;;18.15;8.77;;;;;;;22.06;42.28;94187.63;5006464;28;20221;-76
2023/05/19 10:37:25;;;;;;;21.70;8.02;;;;;;;22.22;40.34;94184.63;5006247;28;20105;-76
2023/05/19 10:39:52;;;;;;;17.77;7.60;;;;;;;22.19;40.85;94178.00;5006191;28;20094;-76
2023/05/19 10:42:50;;;;;;;19.85;8.00;;;;;;;22.24;42.18;94183.09;5006295;28;20100;-76
2023/05/19 10:45:22;;;;;;;18.77;7.72;;;;;;;22.40;41.30;94182.78;4958311;28;20073;-76
2023/05/19 10:47:49;;;;;;;20.90;8.25;;;;;;;22.51;40.03;94182.88;5004646;28;20029;-76
2023/05/19 10:50:16;;;;;;;16.30;8.10;;;;;;;22.56;38.88;94182.50;5004694;28;20022;-76
2023/05/19 10:52:43;;;;;;;15.27;7.78;;;;;;;22.45;39.09;94173.53;5005813;28;20022;-76
2023/05/19 10:55:16;;;;;;;11.77;7.88;;;;;;;22.52;40.09;94178.22;5005931;28;20038;-76
2023/05/19 10:57:53;;;;;;;20.17;8.95;;;;;;;22.75;39.13;94165.09;5005879;28;20038;-76
2023/05/19 11:00:30;;;;;;;17.23;7.45;;;;;;;22.91;37.71;94164.75;5005895;28;20038;-76
2023/05/19 11:03:15;;;;;;;12.57;7.13;;;;;;;22.99;35.76;94169.03;5006028;28;20030;-75
2023/05/19 11:05:44;;;;;;;15.35;7.20;;;;;;;23.03;35.80;94160.94;5004681;28;20014;-77
2023/05/19 11:08:11;;;;;;;10.60;7.15;;;;;;;23.03;37.12;94163.66;5004387;28;20049;-76
2023/05/19 11:10:37;;;;;;;19.88;8.60;;;;;;;23.13;35.00;94162.91;5004574;28;20033;-76
2023/05/19 11:13:05;;;;;;;19.50;7.57;;;;;;;23.26;36.66;94168.72;5004827;28;20096;-77
2023/05/19 11:15:36;;;;;;;12.07;7.78;;;;;;;23.35;36.57;94162.94;5004798;28;20024;-76
2023/05/19 11:18:03;;;;;;;19.05;7.72;;;;;;;23.56;36.00;94168.38;5004661;28;20089;-76
2023/05/19 11:20:33;;;;;;;13.80;7.55;;;;;;;23.68;36.04;94164.50;5005577;28;20030;-77
2023/05/19 11:23:09;;;;;;;14.88;7.70;;;;;;;23.70;36.62;94158.66;5005432;28;20320;-76
2023/05/19 11:25:49;;;;;;;13.02;7.25;;;;;;;23.68;37.04;94153.63;5005764;28;20022;-76
2023/05/19 11:28:18;;;;;;;18.40;8.00;;;;;;;23.78;36.15;94155.56;5005764;28;20028;-77
2023/05/19 11:30:45;;;;;;;12.32;6.70;;;;;;;23.99;34.65;94156.72;5005534;28;20022;-77
2023/05/19 11:33:12;;;;;;;10.63;6.35;;;;;;;24.19;33.65;94144.22;5005790;28;20038;-76